Accueil
METAR-TAF:

METAR-TAF

Aéroports :

Aéroport de Poitiers-Biard

Poitiers, France

latitude: 46-35N, longitude: 000-19E, altitude: 129 m

Observation

Le bulletin a été fait il y a 36 minutes, à 12:00 UTC
Vent 5 kt de sud-est, variant entre est et sud
Température 16°C
Humidité 59%
Pression 1017 hPa
Visibilité 10 km ou plus
pas de nuages en-dessous de 1500 mètres et pas de cumulonimbus.

METAR: LFBI 261200Z AUTO 14005KT 090V190 CAVOK 16/08 Q1017 NOSIG

Heure: 13:36 (12:36 UTC)

Prévision

Le bulletin a été fait il y a 1 heure et 36 minutes, à 11:00 UTC
Prévision valable du 26 à 12 UTC au 27 à 12 UTC
Vent 6 kt de est
Visibilité 10 km ou plus
Nuages fragmentés à une hauteur de 3500 ft
Probabilité 30%
du 27 à 04 UTC au 27 à 06 UTC
Visibilité: 4000 m
brume

TAF: LFBI 261100Z 2612/2712 10006KT 9999 BKN035 PROB30 2704/2706 4000 BR

Observations et prévisions météorologiques de plus de 4000 aéroports (messages METAR et TAF).

Les stations disponibles sont représentées par des disques jaunes et rouges sur la carte.

Passer la souris dessus pour voir le nom de la station.

Cliquer dessus pour voir les observations et prévisions météorologiques.

Pour changer de carte: cliquez sur les boutons verts avec une croix noire pour zoomer, sur le bouton vert avec un tiret pour effectuer un zoom arrière, ou sur les flèches vertes pour les cartes adjacentes.


METAR-TAF: